Time;durP1;ratioP1;P1;durP2;ratioP2;P2;SDS_P1;SDS_P2;PMS_P1;PMS_P2;Temp;Humidity;BMP_temperature;BMP_pressure;BME280_temperature;BME280_humidity;BME280_pressure;Samples;Min_cycle;Max_cycle;Signal;HPM_P1;HPM_P2
2023/08/21 00:00:08;;;;;;;5.47;5.05;;;24.70;99.90;;;;;;5043100;28;20256;-69
2023/08/21 00:02:33;;;;;;;6.10;5.60;;;24.70;99.90;;;;;;5021904;28;20196;-69
2023/08/21 00:04:59;;;;;;;5.65;5.20;;;24.70;99.90;;;;;;5040417;28;20216;-70
2023/08/21 00:07:25;;;;;;;5.45;5.05;;;24.70;99.90;;;;;;5033646;28;20551;-70
2023/08/21 00:09:51;;;;;;;6.30;5.80;;;24.70;99.90;;;;;;5043044;28;20244;-69
2023/08/21 00:12:16;;;;;;;5.95;5.45;;;24.70;99.90;;;;;;5028367;28;20182;-69
2023/08/21 00:14:42;;;;;;;5.57;5.13;;;24.70;99.90;;;;;;5037951;28;20400;-70
2023/08/21 00:17:08;;;;;;;6.00;5.50;;;24.70;99.90;;;;;;5035423;28;20273;-70
2023/08/21 00:19:34;;;;;;;5.80;5.40;;;24.70;99.90;;;;;;5039697;28;20214;-68
2023/08/21 00:22:00;;;;;;;5.65;5.25;;;24.70;99.90;;;;;;5016614;28;20614;-70
2023/08/21 00:24:27;;;;;;;5.45;5.05;;;24.70;99.90;;;;;;5033073;28;20658;-70
2023/08/21 00:26:53;;;;;;;5.60;5.20;;;24.70;99.90;;;;;;5025543;28;20229;-69
2023/08/21 00:29:18;;;;;;;5.50;5.10;;;24.70;99.90;;;;;;5053133;28;20186;-70
2023/08/21 00:31:44;;;;;;;6.10;5.60;;;24.70;99.90;;;;;;5039180;28;20195;-69
2023/08/21 00:34:10;;;;;;;5.70;5.30;;;24.70;99.90;;;;;;5049610;28;20293;-69
2023/08/21 00:36:35;;;;;;;5.90;5.50;;;24.70;99.90;;;;;;5022468;28;20190;-70
2023/08/21 00:39:01;;;;;;;6.10;5.60;;;24.70;99.90;;;;;;5043691;28;20194;-69
2023/08/21 00:41:29;;;;;;;5.40;5.00;;;24.70;99.90;;;;;;5041437;28;20670;-70
2023/08/21 00:43:54;;;;;;;5.55;5.15;;;24.70;99.90;;;;;;5032225;28;20193;-69
2023/08/21 00:46:20;;;;;;;6.20;5.70;;;24.70;99.90;;;;;;5040980;28;20321;-69
2023/08/21 00:48:47;;;;;;;5.80;5.30;;;24.70;99.90;;;;;;5031935;28;20197;-68
2023/08/21 00:51:16;;;;;;;5.68;5.28;;;24.70;99.90;;;;;;5025091;28;20187;-69
2023/08/21 00:53:43;;;;;;;5.63;5.13;;;24.70;99.90;;;;;;5020965;28;20192;-70
2023/08/21 00:56:09;;;;;;;5.70;5.22;;;24.70;99.90;;;;;;5039123;28;20247;-69
2023/08/21 00:58:35;;;;;;;5.75;5.35;;;24.70;99.90;;;;;;5040730;28;20199;-70
2023/08/21 01:01:02;;;;;;;5.88;5.38;;;24.70;99.90;;;;;;5050357;28;20209;-69
2023/08/21 01:03:29;;;;;;;5.47;4.93;;;24.70;99.90;;;;;;5023564;28;20199;-70
2023/08/21 01:05:55;;;;;;;5.65;5.15;;;24.70;99.90;;;;;;5032888;28;20202;-70
2023/08/21 01:09:01;;;;;;;5.60;5.13;;;24.70;99.90;;;;;;5016393;28;20653;-70
2023/08/21 01:11:40;;;;;;;5.50;5.05;;;24.70;99.90;;;;;;5008020;28;20224;-69
2023/08/21 01:14:21;;;;;;;5.55;5.15;;;24.70;99.90;;;;;;5028021;28;20279;-70
2023/08/21 01:16:54;;;;;;;5.75;5.35;;;24.70;99.90;;;;;;5032327;28;20197;-69
2023/08/21 01:19:49;;;;;;;5.45;5.15;;;24.70;99.90;;;;;;5045619;28;20638;-69
2023/08/21 01:22:15;;;;;;;5.72;5.30;;;24.70;99.90;;;;;;5024575;28;20207;-69
2023/08/21 01:24:41;;;;;;;5.50;5.10;;;24.60;99.90;;;;;;5032605;28;20211;-70
2023/08/21 01:27:09;;;;;;;5.57;5.18;;;24.70;99.90;;;;;;5030535;28;20256;-69
2023/08/21 01:29:36;;;;;;;5.82;5.43;;;24.70;99.90;;;;;;5029522;28;20225;-70
2023/08/21 01:32:43;;;;;;;5.85;5.45;;;24.60;99.90;;;;;;5035065;28;20237;-69
2023/08/21 01:35:12;;;;;;;5.82;5.40;;;24.60;99.90;;;;;;5040824;28;20293;-70
2023/08/21 01:37:38;;;;;;;5.32;4.80;;;24.60;99.90;;;;;;5039037;28;20194;-70
2023/08/21 01:40:05;;;;;;;5.78;5.28;;;24.60;99.90;;;;;;5044226;28;20232;-69
2023/08/21 01:42:31;;;;;;;5.70;5.30;;;24.60;99.90;;;;;;5032304;28;20187;-70
2023/08/21 01:44:57;;;;;;;5.68;5.18;;;24.60;99.90;;;;;;5041199;28;20213;-70
2023/08/21 01:47:23;;;;;;;5.57;5.18;;;24.60;99.90;;;;;;5035524;28;20745;-69
2023/08/21 01:49:52;;;;;;;5.53;5.13;;;24.60;99.90;;;;;;5035466;28;20190;-69
2023/08/21 01:52:18;;;;;;;5.47;5.00;;;24.60;99.90;;;;;;5024633;28;20669;-70
2023/08/21 01:54:44;;;;;;;5.47;5.07;;;24.60;99.90;;;;;;5028575;28;20232;-70
2023/08/21 01:57:10;;;;;;;5.70;5.15;;;24.60;99.90;;;;;;5014150;28;20270;-69
2023/08/21 01:59:36;;;;;;;6.10;5.40;;;24.60;99.90;;;;;;5022461;28;20239;-69
2023/08/21 02:02:01;;;;;;;5.60;5.20;;;24.60;99.90;;;;;;5038139;28;20198;-69
2023/08/21 02:04:27;;;;;;;5.82;5.32;;;24.60;99.90;;;;;;5027132;28;20211;-69
2023/08/21 02:06:53;;;;;;;5.32;5.00;;;24.60;99.90;;;;;;5021170;28;20279;-69
2023/08/21 02:09:20;;;;;;;5.55;5.13;;;24.60;99.90;;;;;;5045093;28;20191;-69
2023/08/21 02:11:46;;;;;;;6.50;5.13;;;24.60;99.90;;;;;;5041493;28;20190;-70
2023/08/21 02:14:12;;;;;;;5.45;5.05;;;24.60;99.90;;;;;;5033644;28;20254;-70
2023/08/21 02:16:38;;;;;;;5.63;5.15;;;24.60;99.90;;;;;;5030864;28;20191;-70
2023/08/21 02:19:04;;;;;;;5.60;5.20;;;24.60;99.90;;;;;;5032068;28;20210;-69
2023/08/21 02:21:31;;;;;;;5.05;4.65;;;24.60;99.90;;;;;;5019018;28;20191;-70
2023/08/21 02:23:57;;;;;;;5.47;5.07;;;24.60;99.90;;;;;;5029260;28;20180;-70
2023/08/21 02:26:22;;;;;;;5.13;4.72;;;24.60;99.90;;;;;;5034641;28;20198;-70
2023/08/21 02:28:49;;;;;;;5.25;4.85;;;24.60;99.90;;;;;;5027308;28;20189;-70
2023/08/21 02:31:15;;;;;;;6.32;5.72;;;24.60;99.90;;;;;;5046682;28;20194;-69
2023/08/21 02:33:41;;;;;;;5.35;4.95;;;24.60;99.90;;;;;;5025477;28;20191;-70
2023/08/21 02:36:07;;;;;;;5.28;4.90;;;24.60;99.90;;;;;;5043599;28;20233;-69
2023/08/21 02:38:33;;;;;;;6.00;5.60;;;24.60;99.90;;;;;;5039273;28;20191;-70
2023/08/21 02:40:58;;;;;;;5.63;5.22;;;24.60;99.90;;;;;;5039350;28;20218;-69
2023/08/21 02:43:24;;;;;;;4.90;4.60;;;24.60;99.90;;;;;;5026720;28;20187;-69
2023/08/21 02:45:50;;;;;;;5.22;4.82;;;24.60;99.90;;;;;;5018851;28;20257;-69
2023/08/21 02:48:16;;;;;;;5.28;4.95;;;24.60;99.90;;;;;;5024727;28;20195;-69
2023/08/21 02:50:41;;;;;;;5.10;4.70;;;24.60;99.90;;;;;;5026976;28;20198;-69
2023/08/21 02:53:07;;;;;;;4.90;4.60;;;24.60;99.90;;;;;;5034748;28;20186;-68
2023/08/21 02:55:34;;;;;;;5.38;5.00;;;24.60;99.90;;;;;;5042558;28;20214;-70
2023/08/21 02:57:59;;;;;;;5.38;5.03;;;24.60;99.90;;;;;;5018357;28;20222;-70
2023/08/21 03:00:25;;;;;;;5.30;4.90;;;24.60;99.90;;;;;;5017232;28;20238;-70
2023/08/21 03:02:51;;;;;;;5.43;5.03;;;24.50;99.90;;;;;;5032760;28;20186;-69
2023/08/21 03:05:17;;;;;;;4.95;4.65;;;24.60;99.90;;;;;;5027741;28;20224;-69
2023/08/21 03:07:42;;;;;;;5.68;5.28;;;24.60;99.90;;;;;;5021799;28;20188;-70
2023/08/21 03:10:09;;;;;;;5.55;5.13;;;24.60;99.90;;;;;;5018243;28;20222;-69
2023/08/21 03:12:35;;;;;;;5.30;4.90;;;24.50;99.90;;;;;;5034710;28;20191;-69
2023/08/21 03:15:01;;;;;;;5.78;5.28;;;24.60;99.90;;;;;;5037522;28;20229;-69
2023/08/21 03:17:27;;;;;;;4.97;4.63;;;24.60;99.90;;;;;;5044104;28;20579;-69
2023/08/21 03:19:53;;;;;;;5.05;4.75;;;24.60;99.90;;;;;;5048780;28;20206;-69
2023/08/21 03:22:18;;;;;;;5.65;5.25;;;24.60;99.90;;;;;;5053059;28;20190;-69
2023/08/21 03:24:44;;;;;;;5.03;4.57;;;24.60;99.90;;;;;;5030593;28;20202;-69
2023/08/21 03:27:10;;;;;;;5.13;4.78;;;24.50;99.90;;;;;;5029512;28;20198;-69
2023/08/21 03:29:36;;;;;;;5.40;5.03;;;24.50;99.90;;;;;;5038266;28;20185;-70
2023/08/21 03:32:02;;;;;;;5.60;5.10;;;24.60;99.90;;;;;;5037176;28;20560;-70
2023/08/21 03:34:27;;;;;;;5.25;4.95;;;24.60;99.90;;;;;;5034171;28;20221;-70
2023/08/21 03:36:57;;;;;;;5.07;4.75;;;24.50;99.90;;;;;;5014948;28;20184;-70
2023/08/21 03:39:23;;;;;;;5.40;4.95;;;24.60;99.90;;;;;;5065541;28;20206;-69
2023/08/21 03:41:49;;;;;;;5.20;4.80;;;24.50;99.90;;;;;;5039121;28;20198;-69
2023/08/21 03:44:16;;;;;;;4.97;4.68;;;24.60;99.90;;;;;;5037279;28;20207;-69
2023/08/21 03:46:41;;;;;;;4.65;4.35;;;24.50;99.90;;;;;;5053658;28;20205;-69
2023/08/21 03:49:09;;;;;;;5.25;4.85;;;24.50;99.90;;;;;;5037238;28;20179;-69
2023/08/21 03:51:34;;;;;;;4.63;4.32;;;24.50;99.90;;;;;;5033822;28;20196;-69
2023/08/21 03:54:00;;;;;;;5.05;4.65;;;24.50;99.90;;;;;;5033386;28;20187;-70
2023/08/21 03:56:26;;;;;;;5.13;4.82;;;24.50;99.90;;;;;;5026889;28;20178;-70
2023/08/21 03:58:53;;;;;;;4.65;4.35;;;24.50;99.90;;;;;;5039590;28;20797;-69
2023/08/21 04:01:19;;;;;;;5.20;4.80;;;24.50;99.90;;;;;;5033654;28;20290;-69
2023/08/21 04:03:45;;;;;;;4.72;4.43;;;24.50;99.90;;;;;;5029579;28;20193;-70
2023/08/21 04:06:11;;;;;;;5.63;5.22;;;24.50;99.90;;;;;;5036791;28;20297;-70
2023/08/21 04:08:37;;;;;;;5.28;4.88;;;24.50;99.90;;;;;;5030315;28;20186;-70
2023/08/21 04:11:04;;;;;;;5.00;4.68;;;24.50;99.90;;;;;;5028430;28;20217;-69
2023/08/21 04:13:30;;;;;;;5.13;4.72;;;24.50;99.90;;;;;;5040561;28;20214;-70
2023/08/21 04:15:56;;;;;;;5.05;4.75;;;24.50;99.90;;;;;;5039566;28;20235;-69
2023/08/21 04:18:22;;;;;;;5.20;4.80;;;24.50;99.90;;;;;;5027053;28;20265;-70
2023/08/21 04:20:48;;;;;;;5.35;4.95;;;24.50;99.90;;;;;;5038221;28;20206;-69
2023/08/21 04:23:14;;;;;;;5.22;4.85;;;24.60;99.90;;;;;;5030105;28;20188;-69
2023/08/21 04:25:40;;;;;;;5.32;4.93;;;24.50;99.90;;;;;;5036337;28;20228;-70
2023/08/21 04:28:07;;;;;;;4.97;4.60;;;24.50;99.90;;;;;;5025496;28;20192;-69
2023/08/21 04:30:33;;;;;;;5.10;4.60;;;24.50;99.90;;;;;;5031350;28;20195;-70
2023/08/21 04:33:00;;;;;;;5.50;5.05;;;24.50;99.90;;;;;;5042525;28;20187;-68
2023/08/21 04:35:26;;;;;;;5.38;4.88;;;24.50;99.90;;;;;;5040950;28;20203;-69
2023/08/21 04:37:52;;;;;;;5.18;4.78;;;24.50;99.90;;;;;;5029512;28;20193;-69
2023/08/21 04:40:22;;;;;;;5.40;5.00;;;24.50;99.90;;;;;;5052670;28;20226;-68
2023/08/21 04:42:48;;;;;;;4.88;4.55;;;24.50;99.90;;;;;;5040093;28;20665;-69
2023/08/21 04:45:14;;;;;;;4.78;4.47;;;24.50;99.90;;;;;;5032276;28;20198;-70
2023/08/21 04:47:40;;;;;;;5.05;4.75;;;24.50;99.90;;;;;;5044732;28;20232;-69
2023/08/21 04:50:06;;;;;;;5.47;5.07;;;24.50;99.90;;;;;;5038819;28;20187;-69
2023/08/21 04:52:32;;;;;;;5.15;4.80;;;24.50;99.90;;;;;;5051436;28;20198;-70
2023/08/21 04:54:59;;;;;;;5.45;5.05;;;24.50;99.90;;;;;;5044655;28;20622;-70
2023/08/21 04:57:27;;;;;;;4.90;4.60;;;24.50;99.90;;;;;;5036157;28;20210;-70
2023/08/21 04:59:52;;;;;;;4.80;4.50;;;24.50;99.90;;;;;;5048135;28;20201;-69
2023/08/21 05:02:20;;;;;;;4.78;4.47;;;24.50;99.90;;;;;;5017077;28;20274;-69
2023/08/21 05:04:46;;;;;;;5.22;4.82;;;24.50;99.90;;;;;;5027881;28;20249;-70
2023/08/21 05:07:12;;;;;;;5.40;5.00;;;24.50;99.90;;;;;;5044563;28;20181;-69
2023/08/21 05:09:39;;;;;;;5.40;5.00;;;24.50;99.90;;;;;;5024660;28;20191;-69
2023/08/21 05:12:08;;;;;;;5.35;4.95;;;24.50;99.90;;;;;;5022601;28;20252;-69
2023/08/21 05:14:34;;;;;;;4.93;4.53;;;24.50;99.90;;;;;;5042091;28;20211;-69
2023/08/21 05:17:00;;;;;;;4.90;4.50;;;24.50;99.90;;;;;;5040769;28;20183;-70
2023/08/21 05:19:26;;;;;;;5.03;4.63;;;24.40;99.90;;;;;;5041339;28;20225;-70
2023/08/21 05:21:52;;;;;;;4.70;4.40;;;24.50;99.90;;;;;;5048168;28;20189;-70
2023/08/21 05:24:18;;;;;;;5.30;4.90;;;24.50;99.90;;;;;;5020192;28;20223;-70
2023/08/21 05:26:53;;;;;;;4.97;4.57;;;24.50;99.90;;;;;;5029564;28;20178;-69
2023/08/21 05:29:18;;;;;;;5.10;4.70;;;24.50;99.90;;;;;;5024385;28;20218;-70
2023/08/21 05:31:44;;;;;;;4.95;4.60;;;24.50;99.90;;;;;;5031955;28;20213;-70
2023/08/21 05:34:10;;;;;;;5.35;4.95;;;24.50;99.90;;;;;;5020065;28;20206;-69
2023/08/21 05:36:36;;;;;;;4.90;4.50;;;24.50;99.90;;;;;;5020209;28;20196;-70
2023/08/21 05:39:05;;;;;;;5.10;4.80;;;24.40;99.90;;;;;;5040483;28;20206;-70
2023/08/21 05:41:33;;;;;;;5.28;4.78;;;24.50;99.90;;;;;;5038288;28;20549;-69
2023/08/21 05:43:59;;;;;;;5.45;5.05;;;24.40;99.90;;;;;;5035677;28;20179;-69
2023/08/21 05:46:25;;;;;;;5.47;5.00;;;24.50;99.90;;;;;;5028311;28;20175;-69
2023/08/21 05:48:51;;;;;;;5.05;4.65;;;24.40;99.90;;;;;;5052249;28;20308;-69
2023/08/21 05:51:17;;;;;;;4.60;4.30;;;24.40;99.90;;;;;;5035267;28;20187;-70
2023/08/21 05:53:43;;;;;;;5.05;4.72;;;24.50;99.90;;;;;;5027421;28;20236;-70
2023/08/21 05:56:09;;;;;;;4.80;4.50;;;24.40;99.90;;;;;;5024577;28;20776;-68
2023/08/21 05:58:34;;;;;;;4.93;4.63;;;24.50;99.90;;;;;;5020821;28;20191;-70
2023/08/21 06:01:00;;;;;;;4.65;4.35;;;24.40;99.90;;;;;;5039308;28;20202;-70
2023/08/21 06:03:26;;;;;;;5.60;5.20;;;24.40;99.90;;;;;;5038836;28;20191;-70
2023/08/21 06:06:04;;;;;;;5.28;4.82;;;24.50;99.90;;;;;;5034790;28;20341;-70
2023/08/21 06:08:30;;;;;;;5.22;4.82;;;24.40;99.90;;;;;;5029992;28;20233;-70
2023/08/21 06:10:55;;;;;;;4.90;4.60;;;24.40;99.90;;;;;;5037857;28;20179;-69
2023/08/21 06:13:21;;;;;;;5.32;4.93;;;24.40;99.90;;;;;;5053452;28;20186;-70
2023/08/21 06:15:50;;;;;;;5.60;5.20;;;24.40;99.90;;;;;;5044713;28;20210;-70
2023/08/21 06:18:17;;;;;;;4.90;4.50;;;24.40;99.90;;;;;;5019141;28;20184;-69
2023/08/21 06:20:43;;;;;;;5.10;4.70;;;24.40;99.90;;;;;;5035835;28;20217;-70
2023/08/21 06:23:10;;;;;;;5.43;4.95;;;24.50;99.90;;;;;;5041251;28;20190;-70
2023/08/21 06:25:37;;;;;;;5.15;4.70;;;24.40;99.90;;;;;;5047209;28;20242;-70
2023/08/21 06:28:03;;;;;;;5.22;4.82;;;24.40;99.90;;;;;;5038868;28;20665;-70
2023/08/21 06:30:29;;;;;;;5.22;4.82;;;24.40;99.90;;;;;;5055148;28;20250;-69
2023/08/21 06:32:55;;;;;;;5.30;4.95;;;24.50;99.90;;;;;;5015572;28;20685;-70
2023/08/21 06:35:22;;;;;;;5.00;4.70;;;24.40;99.90;;;;;;5025518;28;20216;-70
2023/08/21 06:37:54;;;;;;;4.88;4.57;;;24.40;99.90;;;;;;5027694;28;20262;-70
2023/08/21 06:40:20;;;;;;;5.28;4.88;;;24.40;99.90;;;;;;5032095;28;20211;-69
2023/08/21 06:42:46;;;;;;;5.57;5.07;;;24.40;99.90;;;;;;5034359;28;20194;-70
2023/08/21 06:45:12;;;;;;;5.90;5.30;;;24.40;99.90;;;;;;5026771;28;20364;-70
2023/08/21 06:47:40;;;;;;;5.55;5.15;;;24.40;99.90;;;;;;5017057;28;20192;-70
2023/08/21 06:50:06;;;;;;;5.57;5.18;;;24.40;99.90;;;;;;5040522;28;20233;-69
2023/08/21 06:52:31;;;;;;;5.43;5.03;;;24.40;99.90;;;;;;5022471;28;20198;-70
2023/08/21 06:54:57;;;;;;;6.10;5.50;;;24.50;99.90;;;;;;5051098;28;20231;-69
2023/08/21 06:57:23;;;;;;;5.43;5.03;;;24.40;99.90;;;;;;5018883;28;20190;-69
2023/08/21 06:59:49;;;;;;;6.10;5.50;;;24.40;99.90;;;;;;5026464;28;20218;-68
2023/08/21 07:02:14;;;;;;;5.93;5.28;;;24.40;99.90;;;;;;5034583;28;20217;-69
2023/08/21 07:04:40;;;;;;;5.53;5.03;;;24.40;99.90;;;;;;5044036;28;20211;-69
2023/08/21 07:07:06;;;;;;;5.80;5.30;;;24.40;99.90;;;;;;5031560;28;20186;-70
2023/08/21 07:09:31;;;;;;;5.70;5.30;;;24.40;99.90;;;;;;5039134;28;20195;-70
2023/08/21 07:11:57;;;;;;;5.53;5.05;;;24.40;99.90;;;;;;5038425;28;20186;-70
2023/08/21 07:14:23;;;;;;;5.68;5.28;;;24.50;99.90;;;;;;5039330;28;20211;-70
2023/08/21 07:16:48;;;;;;;5.68;5.20;;;24.50;99.90;;;;;;5034549;28;20232;-70
2023/08/21 07:19:14;;;;;;;5.88;5.05;;;24.50;99.90;;;;;;5038541;28;20330;-70
2023/08/21 07:21:40;;;;;;;6.00;5.40;;;24.50;99.90;;;;;;5043168;28;20205;-70
2023/08/21 07:24:06;;;;;;;5.40;5.00;;;24.40;99.90;;;;;;5041338;28;20198;-70
2023/08/21 07:26:32;;;;;;;5.88;5.38;;;24.50;99.90;;;;;;5035969;28;20274;-69
2023/08/21 07:28:57;;;;;;;5.78;5.28;;;24.50;99.90;;;;;;5029744;28;20266;-70
2023/08/21 07:31:23;;;;;;;5.60;5.20;;;24.50;99.90;;;;;;5028849;28;20195;-70
2023/08/21 07:33:49;;;;;;;5.45;5.05;;;24.50;99.90;;;;;;5042624;28;20195;-70
2023/08/21 07:36:17;;;;;;;5.70;5.22;;;24.40;99.90;;;;;;5028782;28;20191;-69
2023/08/21 07:38:44;;;;;;;5.80;5.30;;;24.50;99.90;;;;;;5033912;28;20189;-70
2023/08/21 07:41:12;;;;;;;6.13;5.55;;;24.50;99.90;;;;;;5029720;28;20211;-70
2023/08/21 07:43:41;;;;;;;6.38;5.80;;;24.50;99.90;;;;;;5032386;28;20264;-69
2023/08/21 07:46:13;;;;;;;5.38;5.03;;;24.50;99.90;;;;;;5053825;28;20288;-70
2023/08/21 07:48:39;;;;;;;6.22;5.63;;;24.50;99.90;;;;;;5032482;28;20287;-70
2023/08/21 07:51:05;;;;;;;6.00;5.50;;;24.50;99.90;;;;;;5026849;28;20202;-69
2023/08/21 07:53:31;;;;;;;5.75;5.35;;;24.50;99.90;;;;;;5022195;28;20194;-70
2023/08/21 07:55:58;;;;;;;5.43;5.03;;;24.50;99.90;;;;;;5026406;28;20224;-69
2023/08/21 07:58:24;;;;;;;5.70;5.30;;;24.50;99.90;;;;;;5033956;28;20223;-69
2023/08/21 08:00:50;;;;;;;5.80;5.38;;;24.50;99.90;;;;;;5039512;28;20202;-69
2023/08/21 08:03:15;;;;;;;6.05;5.55;;;24.50;99.90;;;;;;5037630;28;20199;-69
2023/08/21 08:05:42;;;;;;;6.00;5.45;;;24.50;99.90;;;;;;5033036;28;20203;-69
2023/08/21 08:08:09;;;;;;;6.35;5.88;;;24.50;99.90;;;;;;5028123;28;20187;-69
2023/08/21 08:10:39;;;;;;;6.20;5.70;;;24.50;99.90;;;;;;5033821;28;20226;-69
2023/08/21 08:13:06;;;;;;;5.82;5.43;;;24.50;99.90;;;;;;5024040;28;20573;-70
2023/08/21 08:15:33;;;;;;;6.15;5.63;;;24.50;99.90;;;;;;5029106;28;20208;-70
2023/08/21 08:17:59;;;;;;;5.78;5.30;;;24.50;99.90;;;;;;5031229;28;20225;-69
2023/08/21 08:20:25;;;;;;;6.10;5.55;;;24.60;99.90;;;;;;5036410;28;20230;-70
2023/08/21 08:22:51;;;;;;;5.60;5.20;;;24.50;99.90;;;;;;5046500;28;20284;-69
2023/08/21 08:25:17;;;;;;;6.22;5.72;;;24.50;99.90;;;;;;5031445;28;20288;-70
2023/08/21 08:27:44;;;;;;;5.90;5.40;;;24.50;99.90;;;;;;5017925;28;20194;-68
2023/08/21 08:30:10;;;;;;;6.00;5.53;;;24.60;99.90;;;;;;5032997;28;20187;-69
2023/08/21 08:32:36;;;;;;;5.57;5.18;;;24.60;99.90;;;;;;5027267;28;20654;-69
2023/08/21 08:35:03;;;;;;;6.10;5.60;;;24.60;99.90;;;;;;5040165;28;20706;-69
2023/08/21 08:37:28;;;;;;;6.25;5.72;;;24.60;99.90;;;;;;5025533;28;20193;-70
2023/08/21 08:39:54;;;;;;;5.80;5.40;;;24.60;99.90;;;;;;5022807;28;20230;-69
2023/08/21 08:42:20;;;;;;;5.93;5.43;;;24.60;99.90;;;;;;5028140;28;20198;-70
2023/08/21 08:44:47;;;;;;;6.10;5.60;;;24.60;99.90;;;;;;5027550;28;20212;-69
2023/08/21 08:47:15;;;;;;;6.10;5.55;;;24.60;99.90;;;;;;5048230;28;20671;-69
2023/08/21 08:49:41;;;;;;;5.97;5.43;;;24.60;99.90;;;;;;5050630;28;20190;-70
2023/08/21 08:52:07;;;;;;;6.47;5.97;;;24.50;99.90;;;;;;5045616;28;20193;-69
2023/08/21 08:54:35;;;;;;;6.72;6.13;;;24.60;99.90;;;;;;5045981;28;20241;-70
2023/08/21 08:57:01;;;;;;;5.75;5.35;;;24.60;99.90;;;;;;5028066;28;20215;-69
2023/08/21 08:59:31;;;;;;;6.30;5.75;;;24.60;99.90;;;;;;5047696;28;20182;-70
2023/08/21 09:01:57;;;;;;;6.53;5.93;;;24.60;99.90;;;;;;5027445;28;20191;-70
2023/08/21 09:04:23;;;;;;;6.65;6.15;;;24.60;99.90;;;;;;5037954;28;20199;-69
2023/08/21 09:06:49;;;;;;;6.47;5.97;;;24.60;99.90;;;;;;5049393;28;20190;-69
2023/08/21 09:09:14;;;;;;;6.25;5.75;;;24.60;99.90;;;;;;5041002;28;20188;-70
2023/08/21 09:11:47;;;;;;;6.15;5.65;;;24.60;99.90;;;;;;5041821;28;20171;-68
2023/08/21 09:14:12;;;;;;;5.57;5.10;;;24.60;99.90;;;;;;5016440;28;20201;-68
2023/08/21 09:16:59;;;;;;;5.72;5.22;;;24.60;99.90;;;;;;5032214;28;20186;-69
2023/08/21 09:19:25;;;;;;;5.97;5.47;;;24.60;99.90;;;;;;5024567;28;20221;-70
2023/08/21 09:21:52;;;;;;;6.45;5.70;;;24.60;99.90;;;;;;5043437;28;20316;-70
2023/08/21 09:24:18;;;;;;;5.72;5.22;;;24.70;99.90;;;;;;5046740;28;20277;-69
2023/08/21 09:26:43;;;;;;;6.20;5.60;;;24.70;99.90;;;;;;5051038;28;20664;-70
2023/08/21 09:29:09;;;;;;;5.80;5.40;;;24.60;99.90;;;;;;5012705;28;20206;-69
2023/08/21 09:31:36;;;;;;;5.80;5.30;;;24.60;99.90;;;;;;5037084;28;20205;-69
2023/08/21 09:34:07;;;;;;;5.85;5.45;;;24.70;99.90;;;;;;5031832;28;20190;-69
2023/08/21 09:36:34;;;;;;;6.43;5.93;;;24.60;99.90;;;;;;5039928;28;20199;-70
2023/08/21 09:39:00;;;;;;;6.60;6.00;;;24.70;99.90;;;;;;5040880;28;20193;-70
2023/08/21 09:41:26;;;;;;;6.15;5.65;;;24.70;99.90;;;;;;5046241;28;20783;-69
2023/08/21 09:43:58;;;;;;;6.07;5.47;;;24.70;99.90;;;;;;5043884;28;20194;-69
2023/08/21 09:46:25;;;;;;;6.40;5.88;;;24.70;99.90;;;;;;5032440;28;20183;-69
2023/08/21 09:48:53;;;;;;;5.88;5.38;;;24.70;99.90;;;;;;5026909;28;20188;-70
2023/08/21 09:51:20;;;;;;;6.30;5.70;;;24.70;99.90;;;;;;5020440;28;20197;-69
2023/08/21 09:53:49;;;;;;;6.13;5.72;;;24.70;99.90;;;;;;5051881;28;20190;-69
2023/08/21 09:56:15;;;;;;;5.80;5.35;;;24.70;99.90;;;;;;5027440;28;20206;-69
2023/08/21 09:58:41;;;;;;;5.82;5.28;;;24.70;99.90;;;;;;5045726;28;20206;-70
2023/08/21 10:01:14;;;;;;;6.15;5.55;;;24.70;99.90;;;;;;5048316;28;20210;-69
2023/08/21 10:03:42;;;;;;;5.53;5.13;;;24.70;99.90;;;;;;5031691;28;20666;-70
2023/08/21 10:06:13;;;;;;;6.28;5.72;;;24.70;99.90;;;;;;5049096;28;20906;-69
2023/08/21 10:08:42;;;;;;;6.28;5.88;;;24.70;99.90;;;;;;5044598;28;20191;-70
2023/08/21 10:11:09;;;;;;;5.97;5.55;;;24.70;99.90;;;;;;5031261;28;20223;-70
2023/08/21 10:13:37;;;;;;;5.65;5.25;;;24.70;99.90;;;;;;5047600;28;20218;-70
2023/08/21 10:16:05;;;;;;;6.22;5.65;;;24.70;99.90;;;;;;5016434;28;20241;-70
2023/08/21 10:18:36;;;;;;;6.43;5.82;;;24.70;99.90;;;;;;5029186;28;20328;-69
2023/08/21 10:21:21;;;;;;;6.13;5.63;;;24.70;99.90;;;;;;5049710;28;20218;-69
2023/08/21 10:23:49;;;;;;;6.05;5.57;;;24.70;99.90;;;;;;5050245;28;20273;-69
2023/08/21 10:26:19;;;;;;;6.25;5.75;;;24.70;99.90;;;;;;5035492;28;20264;-70
2023/08/21 10:29:06;;;;;;;5.60;5.20;;;24.70;99.90;;;;;;5036209;28;20242;-70
2023/08/21 10:31:42;;;;;;;6.25;5.80;;;24.70;99.90;;;;;;5043158;28;20226;-70
2023/08/21 10:34:10;;;;;;;6.80;6.20;;;24.80;99.90;;;;;;5034234;28;20611;-70
2023/08/21 10:36:42;;;;;;;6.00;5.50;;;24.70;99.90;;;;;;5043171;28;20182;-70
2023/08/21 10:39:23;;;;;;;6.32;5.70;;;24.80;99.90;;;;;;5045031;28;20206;-70
2023/08/21 10:42:13;;;;;;;7.13;5.90;;;24.80;99.90;;;;;;5020345;28;20192;-69
2023/08/21 10:44:52;;;;;;;5.88;5.38;;;24.80;99.90;;;;;;5038111;28;20274;-70
2023/08/21 10:47:19;;;;;;;6.30;5.80;;;24.80;99.90;;;;;;5023532;28;20245;-69
2023/08/21 10:49:58;;;;;;;7.13;6.03;;;24.80;99.90;;;;;;5047143;28;20187;-70
2023/08/21 10:52:30;;;;;;;6.03;5.53;;;24.80;99.90;;;;;;5041953;28;20190;-70
2023/08/21 10:55:00;;;;;;;6.60;5.90;;;24.80;99.90;;;;;;5054187;28;20206;-69
2023/08/21 10:57:32;;;;;;;7.20;5.15;;;24.80;99.90;;;;;;5034757;28;20718;-70
2023/08/21 11:00:04;;;;;;;6.63;6.03;;;24.80;99.90;;;;;;5026802;28;20252;-69
2023/08/21 11:02:32;;;;;;;5.93;5.43;;;24.80;99.90;;;;;;5014998;28;20227;-69
2023/08/21 11:05:00;;;;;;;6.40;5.90;;;24.80;99.90;;;;;;5015691;28;20226;-70
2023/08/21 11:07:27;;;;;;;6.13;5.63;;;24.80;99.90;;;;;;5039868;28;20197;-69
2023/08/21 11:09:53;;;;;;;6.40;5.70;;;24.80;99.90;;;;;;5057431;28;20186;-70
2023/08/21 11:12:21;;;;;;;6.05;5.55;;;24.80;99.90;;;;;;5040043;28;20178;-68
2023/08/21 11:14:48;;;;;;;6.38;5.90;;;24.80;99.90;;;;;;5038423;28;20207;-70
2023/08/21 11:17:14;;;;;;;6.07;5.60;;;24.80;99.90;;;;;;5041754;28;20219;-70
2023/08/21 11:19:42;;;;;;;6.40;5.85;;;24.80;99.90;;;;;;5026380;28;20238;-70
2023/08/21 11:22:08;;;;;;;6.75;5.63;;;24.80;99.90;;;;;;5041918;28;20275;-70
2023/08/21 11:24:37;;;;;;;6.50;5.90;;;24.80;99.90;;;;;;5043647;28;20689;-70
2023/08/21 11:27:04;;;;;;;6.50;5.90;;;24.80;99.90;;;;;;5026492;28;20266;-69
2023/08/21 11:29:41;;;;;;;6.57;5.97;;;24.80;99.90;;;;;;5042881;28;20225;-70
2023/08/21 11:32:29;;;;;;;6.35;5.85;;;24.80;99.90;;;;;;5035488;28;20194;-70
2023/08/21 11:34:57;;;;;;;6.75;6.00;;;24.80;99.90;;;;;;5034413;28;20260;-70
2023/08/21 11:37:25;;;;;;;6.40;5.80;;;24.80;99.90;;;;;;5027239;28;20194;-70
2023/08/21 11:39:57;;;;;;;6.55;5.97;;;24.80;99.90;;;;;;5043467;28;20198;-69
2023/08/21 11:42:31;;;;;;;6.43;5.82;;;24.80;99.90;;;;;;5051235;28;20190;-70
2023/08/21 11:44:58;;;;;;;6.50;5.85;;;24.80;99.90;;;;;;5042002;28;20206;-70
2023/08/21 11:47:30;;;;;;;6.45;5.88;;;24.80;99.90;;;;;;5035018;28;20195;-70
2023/08/21 11:49:57;;;;;;;7.68;5.82;;;24.80;99.90;;;;;;5035378;28;20191;-69
2023/08/21 11:52:26;;;;;;;6.28;5.78;;;24.80;99.90;;;;;;5053611;28;20182;-70
2023/08/21 11:54:54;;;;;;;6.55;6.05;;;24.80;99.90;;;;;;5021604;28;20221;-68
2023/08/21 11:57:21;;;;;;;6.97;6.45;;;24.80;99.90;;;;;;5042390;28;20203;-70
2023/08/21 11:59:54;;;;;;;6.75;6.22;;;24.80;99.90;;;;;;5034166;28;20242;-70
2023/08/21 12:02:28;;;;;;;6.28;5.78;;;24.80;99.90;;;;;;5050496;28;20211;-69
2023/08/21 12:05:02;;;;;;;5.85;5.45;;;24.80;99.90;;;;;;5049465;28;20543;-70
2023/08/21 12:07:28;;;;;;;6.28;5.78;;;24.80;99.90;;;;;;5045804;28;20184;-70
2023/08/21 12:09:53;;;;;;;6.32;5.72;;;24.80;99.90;;;;;;5047797;28;20576;-70
2023/08/21 12:12:19;;;;;;;6.75;6.10;;;24.90;99.90;;;;;;5042156;28;20218;-69
2023/08/21 12:14:46;;;;;;;6.20;5.60;;;24.90;99.90;;;;;;5016012;28;20220;-70
2023/08/21 12:17:12;;;;;;;6.88;6.38;;;24.80;99.90;;;;;;5052842;28;20190;-70
2023/08/21 12:19:38;;;;;;;7.38;6.78;;;24.90;99.90;;;;;;5034266;28;20219;-70
2023/08/21 12:22:04;;;;;;;7.18;6.57;;;24.90;99.90;;;;;;5056711;28;20202;-71
2023/08/21 12:24:31;;;;;;;7.10;6.53;;;24.90;99.90;;;;;;5037901;28;20219;-70
2023/08/21 12:26:57;;;;;;;7.47;6.88;;;24.90;99.90;;;;;;5041553;28;20191;-70
2023/08/21 12:29:22;;;;;;;7.07;6.57;;;24.90;99.90;;;;;;5016310;28;20188;-70
2023/08/21 12:31:48;;;;;;;7.30;6.68;;;24.90;99.90;;;;;;5031846;28;20186;-71
2023/08/21 12:34:14;;;;;;;7.57;6.97;;;24.90;99.90;;;;;;5033606;28;20211;-70
2023/08/21 12:36:40;;;;;;;6.90;6.40;;;24.90;99.90;;;;;;5035868;28;20197;-71
2023/08/21 12:39:06;;;;;;;7.00;6.47;;;24.90;99.90;;;;;;5028287;28;20246;-69
2023/08/21 12:41:33;;;;;;;6.93;6.32;;;24.90;99.90;;;;;;5029463;28;20202;-70
2023/08/21 12:44:00;;;;;;;7.18;6.65;;;24.90;99.90;;;;;;5036343;28;20191;-71
2023/08/21 12:46:27;;;;;;;7.30;6.80;;;24.80;99.90;;;;;;5046708;28;20187;-70
2023/08/21 12:48:54;;;;;;;7.00;6.30;;;24.90;99.90;;;;;;5026965;28;20187;-70